sensor_id;sensor_type;location;lat;lon;timestamp;P1;durP1;ratioP1;P2;durP2;ratioP2
78508;SDS011;67802;50.846;7.958;2023-03-24T00:00:12;2.53;;;1.00;;
78508;SDS011;67802;50.846;7.958;2023-03-24T00:02:40;2.13;;;0.70;;
78508;SDS011;67802;50.846;7.958;2023-03-24T00:05:27;4.47;;;0.80;;
78508;SDS011;67802;50.846;7.958;2023-03-24T00:07:52;2.22;;;0.50;;
78508;SDS011;67802;50.846;7.958;2023-03-24T00:10:18;1.83;;;0.80;;
78508;SDS011;67802;50.846;7.958;2023-03-24T00:12:46;2.25;;;0.70;;
78508;SDS011;67802;50.846;7.958;2023-03-24T00:15:13;2.10;;;0.77;;
78508;SDS011;67802;50.846;7.958;2023-03-24T00:17:40;1.13;;;0.52;;
78508;SDS011;67802;50.846;7.958;2023-03-24T00:20:07;1.52;;;0.90;;
78508;SDS011;67802;50.846;7.958;2023-03-24T00:22:43;2.47;;;0.60;;
78508;SDS011;67802;50.846;7.958;2023-03-24T00:25:14;2.00;;;0.70;;
78508;SDS011;67802;50.846;7.958;2023-03-24T00:27:43;2.90;;;0.70;;
78508;SDS011;67802;50.846;7.958;2023-03-24T00:30:10;1.80;;;0.77;;
78508;SDS011;67802;50.846;7.958;2023-03-24T00:32:36;0.82;;;0.60;;
78508;SDS011;67802;50.846;7.958;2023-03-24T00:35:03;1.30;;;0.57;;
78508;SDS011;67802;50.846;7.958;2023-03-24T00:37:30;1.48;;;0.70;;
78508;SDS011;67802;50.846;7.958;2023-03-24T00:39:55;1.17;;;0.70;;
78508;SDS011;67802;50.846;7.958;2023-03-24T00:42:20;1.95;;;0.98;;
78508;SDS011;67802;50.846;7.958;2023-03-24T00:44:46;1.10;;;0.68;;
78508;SDS011;67802;50.846;7.958;2023-03-24T00:47:11;2.10;;;0.90;;
78508;SDS011;67802;50.846;7.958;2023-03-24T00:49:36;2.00;;;0.75;;
78508;SDS011;67802;50.846;7.958;2023-03-24T00:52:19;1.50;;;0.60;;
78508;SDS011;67802;50.846;7.958;2023-03-24T00:54:52;2.10;;;0.80;;
78508;SDS011;67802;50.846;7.958;2023-03-24T00:57:22;1.42;;;0.80;;
78508;SDS011;67802;50.846;7.958;2023-03-24T00:59:48;2.03;;;0.85;;
78508;SDS011;67802;50.846;7.958;2023-03-24T01:02:18;0.77;;;0.52;;
78508;SDS011;67802;50.846;7.958;2023-03-24T01:04:46;1.90;;;0.75;;
78508;SDS011;67802;50.846;7.958;2023-03-24T01:07:18;1.73;;;0.65;;
78508;SDS011;67802;50.846;7.958;2023-03-24T01:09:45;1.15;;;0.68;;
78508;SDS011;67802;50.846;7.958;2023-03-24T01:12:16;1.20;;;0.65;;
78508;SDS011;67802;50.846;7.958;2023-03-24T01:14:45;1.80;;;0.70;;
78508;SDS011;67802;50.846;7.958;2023-03-24T01:17:11;1.48;;;0.70;;
78508;SDS011;67802;50.846;7.958;2023-03-24T01:19:37;1.63;;;0.73;;
78508;SDS011;67802;50.846;7.958;2023-03-24T01:22:02;1.40;;;0.63;;
78508;SDS011;67802;50.846;7.958;2023-03-24T01:24:27;2.03;;;0.80;;
78508;SDS011;67802;50.846;7.958;2023-03-24T01:26:53;1.58;;;0.63;;
78508;SDS011;67802;50.846;7.958;2023-03-24T01:29:18;1.52;;;0.80;;
78508;SDS011;67802;50.846;7.958;2023-03-24T01:31:44;3.20;;;0.80;;
78508;SDS011;67802;50.846;7.958;2023-03-24T01:34:09;1.48;;;0.70;;
78508;SDS011;67802;50.846;7.958;2023-03-24T01:36:34;1.05;;;0.52;;
78508;SDS011;67802;50.846;7.958;2023-03-24T01:39:00;1.15;;;0.70;;
78508;SDS011;67802;50.846;7.958;2023-03-24T01:41:26;1.95;;;0.80;;
78508;SDS011;67802;50.846;7.958;2023-03-24T01:43:55;2.45;;;0.77;;
78508;SDS011;67802;50.846;7.958;2023-03-24T01:46:21;1.95;;;0.70;;
78508;SDS011;67802;50.846;7.958;2023-03-24T01:51:42;1.90;;;0.80;;
78508;SDS011;67802;50.846;7.958;2023-03-24T01:54:55;4.13;;;0.80;;
78508;SDS011;67802;50.846;7.958;2023-03-24T01:57:13;0.95;;;0.65;;
78508;SDS011;67802;50.846;7.958;2023-03-24T01:59:45;2.47;;;0.90;;
78508;SDS011;67802;50.846;7.958;2023-03-24T02:02:14;2.35;;;0.80;;
78508;SDS011;67802;50.846;7.958;2023-03-24T02:04:45;2.42;;;0.93;;
78508;SDS011;67802;50.846;7.958;2023-03-24T02:07:38;1.17;;;0.63;;
78508;SDS011;67802;50.846;7.958;2023-03-24T02:10:13;1.60;;;1.08;;
78508;SDS011;67802;50.846;7.958;2023-03-24T02:12:41;2.95;;;0.80;;
78508;SDS011;67802;50.846;7.958;2023-03-24T02:15:08;1.92;;;0.80;;
78508;SDS011;67802;50.846;7.958;2023-03-24T02:26:07;1.33;;;0.77;;
78508;SDS011;67802;50.846;7.958;2023-03-24T02:28:55;1.52;;;0.70;;
78508;SDS011;67802;50.846;7.958;2023-03-24T02:39:33;1.53;;;0.80;;
78508;SDS011;67802;50.846;7.958;2023-03-24T02:48:33;1.83;;;0.90;;
78508;SDS011;67802;50.846;7.958;2023-03-24T02:58:55;1.58;;;0.70;;
78508;SDS011;67802;50.846;7.958;2023-03-24T03:04:15;1.85;;;0.73;;
78508;SDS011;67802;50.846;7.958;2023-03-24T03:06:45;1.65;;;0.80;;
78508;SDS011;67802;50.846;7.958;2023-03-24T03:09:17;2.42;;;0.90;;
78508;SDS011;67802;50.846;7.958;2023-03-24T03:11:46;2.05;;;0.95;;
78508;SDS011;67802;50.846;7.958;2023-03-24T03:14:16;2.30;;;1.00;;
78508;SDS011;67802;50.846;7.958;2023-03-24T03:16:50;2.58;;;0.90;;
78508;SDS011;67802;50.846;7.958;2023-03-24T03:19:27;2.47;;;0.90;;
78508;SDS011;67802;50.846;7.958;2023-03-24T03:21:57;2.13;;;0.90;;
78508;SDS011;67802;50.846;7.958;2023-03-24T03:24:31;1.67;;;0.70;;
78508;SDS011;67802;50.846;7.958;2023-03-24T03:27:02;2.05;;;0.90;;
78508;SDS011;67802;50.846;7.958;2023-03-24T03:29:33;1.13;;;0.70;;
78508;SDS011;67802;50.846;7.958;2023-03-24T03:34:42;1.42;;;0.80;;
78508;SDS011;67802;50.846;7.958;2023-03-24T03:40:19;2.67;;;0.93;;
78508;SDS011;67802;50.846;7.958;2023-03-24T03:42:59;1.27;;;0.80;;
78508;SDS011;67802;50.846;7.958;2023-03-24T03:45:24;1.52;;;0.80;;
78508;SDS011;67802;50.846;7.958;2023-03-24T03:47:50;1.92;;;0.90;;
78508;SDS011;67802;50.846;7.958;2023-03-24T03:50:15;2.05;;;0.80;;
78508;SDS011;67802;50.846;7.958;2023-03-24T03:52:41;2.03;;;0.90;;
78508;SDS011;67802;50.846;7.958;2023-03-24T03:55:08;1.63;;;1.00;;
78508;SDS011;67802;50.846;7.958;2023-03-24T03:57:36;1.63;;;0.90;;
78508;SDS011;67802;50.846;7.958;2023-03-24T04:00:02;1.98;;;0.80;;
78508;SDS011;67802;50.846;7.958;2023-03-24T04:05:34;2.35;;;1.15;;
78508;SDS011;67802;50.846;7.958;2023-03-24T04:11:09;1.45;;;0.88;;
78508;SDS011;67802;50.846;7.958;2023-03-24T04:19:38;1.95;;;0.90;;
78508;SDS011;67802;50.846;7.958;2023-03-24T04:22:30;2.50;;;1.10;;
78508;SDS011;67802;50.846;7.958;2023-03-24T04:25:17;1.70;;;0.95;;
78508;SDS011;67802;50.846;7.958;2023-03-24T04:28:00;2.33;;;0.85;;
78508;SDS011;67802;50.846;7.958;2023-03-24T04:30:39;3.05;;;1.00;;
78508;SDS011;67802;50.846;7.958;2023-03-24T04:33:19;2.10;;;0.90;;
78508;SDS011;67802;50.846;7.958;2023-03-24T04:35:55;3.03;;;1.10;;
78508;SDS011;67802;50.846;7.958;2023-03-24T04:38:30;2.53;;;1.00;;
78508;SDS011;67802;50.846;7.958;2023-03-24T04:40:59;2.58;;;1.00;;
78508;SDS011;67802;50.846;7.958;2023-03-24T04:43:28;2.22;;;0.90;;
78508;SDS011;67802;50.846;7.958;2023-03-24T04:46:00;3.05;;;1.10;;
78508;SDS011;67802;50.846;7.958;2023-03-24T04:48:27;3.15;;;1.05;;
78508;SDS011;67802;50.846;7.958;2023-03-24T04:50:54;2.38;;;1.10;;
78508;SDS011;67802;50.846;7.958;2023-03-24T04:53:21;2.60;;;1.10;;
78508;SDS011;67802;50.846;7.958;2023-03-24T04:55:56;3.55;;;1.10;;
78508;SDS011;67802;50.846;7.958;2023-03-24T04:58:41;1.70;;;1.02;;
78508;SDS011;67802;50.846;7.958;2023-03-24T05:01:06;2.67;;;1.10;;
78508;SDS011;67802;50.846;7.958;2023-03-24T05:03:33;1.92;;;1.10;;
78508;SDS011;67802;50.846;7.958;2023-03-24T05:06:02;2.78;;;1.00;;
78508;SDS011;67802;50.846;7.958;2023-03-24T05:08:29;2.58;;;1.20;;
78508;SDS011;67802;50.846;7.958;2023-03-24T05:10:55;2.08;;;0.98;;
78508;SDS011;67802;50.846;7.958;2023-03-24T05:13:21;1.80;;;1.00;;
78508;SDS011;67802;50.846;7.958;2023-03-24T05:15:46;2.40;;;1.00;;
78508;SDS011;67802;50.846;7.958;2023-03-24T05:18:12;2.20;;;1.00;;
78508;SDS011;67802;50.846;7.958;2023-03-24T05:20:37;2.22;;;1.00;;
78508;SDS011;67802;50.846;7.958;2023-03-24T05:23:02;2.00;;;0.98;;
78508;SDS011;67802;50.846;7.958;2023-03-24T05:25:28;3.65;;;1.20;;
78508;SDS011;67802;50.846;7.958;2023-03-24T05:27:53;1.83;;;0.98;;
78508;SDS011;67802;50.846;7.958;2023-03-24T05:30:18;2.45;;;1.10;;
78508;SDS011;67802;50.846;7.958;2023-03-24T05:32:44;3.03;;;1.15;;
78508;SDS011;67802;50.846;7.958;2023-03-24T05:35:10;2.45;;;1.20;;
78508;SDS011;67802;50.846;7.958;2023-03-24T05:37:35;2.25;;;1.10;;
78508;SDS011;67802;50.846;7.958;2023-03-24T05:40:00;3.65;;;1.13;;
78508;SDS011;67802;50.846;7.958;2023-03-24T05:42:26;2.03;;;1.05;;
78508;SDS011;67802;50.846;7.958;2023-03-24T05:44:51;2.20;;;1.00;;
78508;SDS011;67802;50.846;7.958;2023-03-24T05:47:16;2.33;;;1.00;;
78508;SDS011;67802;50.846;7.958;2023-03-24T05:49:44;1.73;;;1.00;;
78508;SDS011;67802;50.846;7.958;2023-03-24T05:52:10;2.70;;;1.10;;
78508;SDS011;67802;50.846;7.958;2023-03-24T05:54:37;2.55;;;1.05;;
78508;SDS011;67802;50.846;7.958;2023-03-24T05:57:03;3.22;;;1.30;;
78508;SDS011;67802;50.846;7.958;2023-03-24T05:59:31;1.90;;;1.00;;
78508;SDS011;67802;50.846;7.958;2023-03-24T06:01:57;2.53;;;1.10;;
78508;SDS011;67802;50.846;7.958;2023-03-24T06:04:23;2.23;;;1.03;;
78508;SDS011;67802;50.846;7.958;2023-03-24T06:06:48;1.95;;;1.00;;
78508;SDS011;67802;50.846;7.958;2023-03-24T06:09:14;2.60;;;1.10;;
78508;SDS011;67802;50.846;7.958;2023-03-24T06:11:41;1.85;;;1.00;;
78508;SDS011;67802;50.846;7.958;2023-03-24T06:14:08;2.00;;;0.90;;
78508;SDS011;67802;50.846;7.958;2023-03-24T06:16:33;2.17;;;0.95;;
78508;SDS011;67802;50.846;7.958;2023-03-24T06:19:07;2.03;;;0.82;;
78508;SDS011;67802;50.846;7.958;2023-03-24T06:21:33;2.83;;;1.20;;
78508;SDS011;67802;50.846;7.958;2023-03-24T06:23:58;2.58;;;1.10;;
78508;SDS011;67802;50.846;7.958;2023-03-24T06:26:24;1.73;;;0.95;;
78508;SDS011;67802;50.846;7.958;2023-03-24T06:28:50;1.95;;;1.00;;
78508;SDS011;67802;50.846;7.958;2023-03-24T06:31:19;2.17;;;1.00;;
78508;SDS011;67802;50.846;7.958;2023-03-24T06:33:48;2.40;;;1.20;;
78508;SDS011;67802;50.846;7.958;2023-03-24T06:36:15;2.05;;;1.00;;
78508;SDS011;67802;50.846;7.958;2023-03-24T06:38:40;2.95;;;1.15;;
78508;SDS011;67802;50.846;7.958;2023-03-24T06:41:06;2.22;;;1.10;;
78508;SDS011;67802;50.846;7.958;2023-03-24T06:43:32;2.40;;;0.95;;
78508;SDS011;67802;50.846;7.958;2023-03-24T06:45:58;1.50;;;0.90;;
78508;SDS011;67802;50.846;7.958;2023-03-24T06:48:25;1.90;;;0.90;;
78508;SDS011;67802;50.846;7.958;2023-03-24T06:50:51;2.22;;;0.90;;
78508;SDS011;67802;50.846;7.958;2023-03-24T06:53:17;2.17;;;1.00;;
78508;SDS011;67802;50.846;7.958;2023-03-24T06:55:43;2.63;;;0.98;;
78508;SDS011;67802;50.846;7.958;2023-03-24T06:58:08;2.63;;;1.10;;
78508;SDS011;67802;50.846;7.958;2023-03-24T07:00:34;1.48;;;0.80;;
78508;SDS011;67802;50.846;7.958;2023-03-24T07:03:00;1.75;;;0.82;;
78508;SDS011;67802;50.846;7.958;2023-03-24T07:05:26;1.92;;;0.90;;
78508;SDS011;67802;50.846;7.958;2023-03-24T07:07:52;1.70;;;1.00;;
78508;SDS011;67802;50.846;7.958;2023-03-24T07:10:17;2.15;;;0.93;;
78508;SDS011;67802;50.846;7.958;2023-03-24T07:12:43;2.50;;;0.90;;
78508;SDS011;67802;50.846;7.958;2023-03-24T07:15:09;1.45;;;0.85;;
78508;SDS011;67802;50.846;7.958;2023-03-24T07:17:35;1.55;;;0.88;;
78508;SDS011;67802;50.846;7.958;2023-03-24T07:20:00;1.80;;;0.98;;
78508;SDS011;67802;50.846;7.958;2023-03-24T07:22:27;1.88;;;0.80;;
78508;SDS011;67802;50.846;7.958;2023-03-24T07:24:53;1.20;;;0.70;;
78508;SDS011;67802;50.846;7.958;2023-03-24T07:27:19;2.50;;;0.90;;
78508;SDS011;67802;50.846;7.958;2023-03-24T07:29:44;1.90;;;0.82;;
78508;SDS011;67802;50.846;7.958;2023-03-24T07:32:10;1.95;;;0.90;;
78508;SDS011;67802;50.846;7.958;2023-03-24T07:34:36;2.28;;;0.90;;
78508;SDS011;67802;50.846;7.958;2023-03-24T07:37:03;1.98;;;0.90;;
78508;SDS011;67802;50.846;7.958;2023-03-24T07:39:28;1.35;;;0.70;;
78508;SDS011;67802;50.846;7.958;2023-03-24T07:41:53;2.88;;;0.90;;
78508;SDS011;67802;50.846;7.958;2023-03-24T07:46:44;1.15;;;0.80;;
78508;SDS011;67802;50.846;7.958;2023-03-24T07:49:09;1.73;;;0.85;;
78508;SDS011;67802;50.846;7.958;2023-03-24T07:51:36;3.10;;;0.93;;
78508;SDS011;67802;50.846;7.958;2023-03-24T07:54:01;1.50;;;0.80;;
78508;SDS011;67802;50.846;7.958;2023-03-24T07:56:27;2.08;;;0.85;;
78508;SDS011;67802;50.846;7.958;2023-03-24T07:58:52;1.43;;;0.70;;
78508;SDS011;67802;50.846;7.958;2023-03-24T08:01:17;1.90;;;0.90;;
78508;SDS011;67802;50.846;7.958;2023-03-24T08:03:42;1.73;;;0.80;;
78508;SDS011;67802;50.846;7.958;2023-03-24T08:06:08;1.03;;;0.70;;
78508;SDS011;67802;50.846;7.958;2023-03-24T08:08:34;1.52;;;0.80;;
78508;SDS011;67802;50.846;7.958;2023-03-24T08:11:00;1.73;;;0.82;;
78508;SDS011;67802;50.846;7.958;2023-03-24T08:13:26;1.65;;;0.77;;
78508;SDS011;67802;50.846;7.958;2023-03-24T08:15:51;1.25;;;0.80;;
78508;SDS011;67802;50.846;7.958;2023-03-24T08:18:19;1.88;;;0.80;;
78508;SDS011;67802;50.846;7.958;2023-03-24T08:20:46;1.60;;;0.90;;
78508;SDS011;67802;50.846;7.958;2023-03-24T08:23:17;1.85;;;0.80;;
78508;SDS011;67802;50.846;7.958;2023-03-24T08:25:43;1.70;;;0.80;;
78508;SDS011;67802;50.846;7.958;2023-03-24T08:28:08;1.40;;;0.70;;
78508;SDS011;67802;50.846;7.958;2023-03-24T08:30:34;2.17;;;0.80;;
78508;SDS011;67802;50.846;7.958;2023-03-24T08:33:01;1.40;;;0.80;;
78508;SDS011;67802;50.846;7.958;2023-03-24T08:35:28;1.02;;;0.70;;
78508;SDS011;67802;50.846;7.958;2023-03-24T08:37:55;1.30;;;0.80;;
78508;SDS011;67802;50.846;7.958;2023-03-24T08:40:23;1.63;;;0.80;;
78508;SDS011;67802;50.846;7.958;2023-03-24T08:42:50;1.25;;;0.70;;
78508;SDS011;67802;50.846;7.958;2023-03-24T08:45:18;1.67;;;0.77;;
78508;SDS011;67802;50.846;7.958;2023-03-24T08:47:45;1.30;;;0.75;;
78508;SDS011;67802;50.846;7.958;2023-03-24T08:50:12;1.95;;;0.80;;
78508;SDS011;67802;50.846;7.958;2023-03-24T08:52:38;1.08;;;0.57;;
78508;SDS011;67802;50.846;7.958;2023-03-24T08:55:03;1.80;;;0.80;;
78508;SDS011;67802;50.846;7.958;2023-03-24T08:57:29;1.52;;;0.70;;
78508;SDS011;67802;50.846;7.958;2023-03-24T08:59:55;1.52;;;0.70;;
78508;SDS011;67802;50.846;7.958;2023-03-24T09:02:20;1.60;;;0.80;;
78508;SDS011;67802;50.846;7.958;2023-03-24T09:04:45;1.23;;;0.60;;
78508;SDS011;67802;50.846;7.958;2023-03-24T09:07:11;1.00;;;0.50;;
78508;SDS011;67802;50.846;7.958;2023-03-24T09:09:37;1.77;;;0.85;;
78508;SDS011;67802;50.846;7.958;2023-03-24T09:12:03;1.10;;;0.77;;
78508;SDS011;67802;50.846;7.958;2023-03-24T09:14:29;2.03;;;0.80;;
78508;SDS011;67802;50.846;7.958;2023-03-24T09:16:55;1.90;;;0.70;;
78508;SDS011;67802;50.846;7.958;2023-03-24T09:19:20;1.48;;;0.70;;
78508;SDS011;67802;50.846;7.958;2023-03-24T09:21:46;1.40;;;0.70;;
78508;SDS011;67802;50.846;7.958;2023-03-24T09:24:12;1.40;;;0.75;;
78508;SDS011;67802;50.846;7.958;2023-03-24T09:26:38;1.10;;;0.70;;
78508;SDS011;67802;50.846;7.958;2023-03-24T09:29:03;1.17;;;0.68;;
78508;SDS011;67802;50.846;7.958;2023-03-24T09:31:29;1.33;;;0.70;;
78508;SDS011;67802;50.846;7.958;2023-03-24T09:33:55;1.63;;;0.60;;
78508;SDS011;67802;50.846;7.958;2023-03-24T09:36:20;1.55;;;0.77;;
78508;SDS011;67802;50.846;7.958;2023-03-24T09:38:45;1.55;;;0.73;;
78508;SDS011;67802;50.846;7.958;2023-03-24T09:41:21;1.45;;;0.70;;
78508;SDS011;67802;50.846;7.958;2023-03-24T09:43:53;1.38;;;0.63;;
78508;SDS011;67802;50.846;7.958;2023-03-24T09:46:25;0.98;;;0.60;;
78508;SDS011;67802;50.846;7.958;2023-03-24T09:48:53;1.15;;;0.60;;
78508;SDS011;67802;50.846;7.958;2023-03-24T09:54:10;1.85;;;0.80;;
78508;SDS011;67802;50.846;7.958;2023-03-24T09:56:44;2.25;;;0.82;;
78508;SDS011;67802;50.846;7.958;2023-03-24T10:01:42;4.10;;;1.10;;
78508;SDS011;67802;50.846;7.958;2023-03-24T10:04:12;3.47;;;1.00;;
78508;SDS011;67802;50.846;7.958;2023-03-24T10:06:40;2.70;;;1.00;;
78508;SDS011;67802;50.846;7.958;2023-03-24T10:17:10;5.28;;;1.30;;
78508;SDS011;67802;50.846;7.958;2023-03-24T10:19:47;2.63;;;0.75;;
78508;SDS011;67802;50.846;7.958;2023-03-24T10:28:18;2.95;;;1.10;;
78508;SDS011;67802;50.846;7.958;2023-03-24T10:30:54;6.32;;;1.20;;
78508;SDS011;67802;50.846;7.958;2023-03-24T10:33:25;1.90;;;0.80;;
78508;SDS011;67802;50.846;7.958;2023-03-24T10:36:04;4.28;;;1.00;;
78508;SDS011;67802;50.846;7.958;2023-03-24T10:38:33;1.58;;;0.90;;
78508;SDS011;67802;50.846;7.958;2023-03-24T10:40:59;4.32;;;1.02;;
78508;SDS011;67802;50.846;7.958;2023-03-24T10:43:25;5.28;;;1.02;;
78508;SDS011;67802;50.846;7.958;2023-03-24T10:45:52;3.22;;;1.00;;
78508;SDS011;67802;50.846;7.958;2023-03-24T10:51:23;4.20;;;1.23;;
78508;SDS011;67802;50.846;7.958;2023-03-24T10:56:46;4.85;;;0.93;;
78508;SDS011;67802;50.846;7.958;2023-03-24T10:59:24;3.92;;;1.05;;
78508;SDS011;67802;50.846;7.958;2023-03-24T11:01:59;2.63;;;0.90;;
78508;SDS011;67802;50.846;7.958;2023-03-24T11:04:56;4.25;;;1.13;;
78508;SDS011;67802;50.846;7.958;2023-03-24T11:12:41;2.97;;;1.10;;
78508;SDS011;67802;50.846;7.958;2023-03-24T11:17:41;4.60;;;0.90;;
78508;SDS011;67802;50.846;7.958;2023-03-24T11:20:17;1.35;;;0.75;;
78508;SDS011;67802;50.846;7.958;2023-03-24T11:22:55;2.42;;;0.82;;
78508;SDS011;67802;50.846;7.958;2023-03-24T11:25:27;4.78;;;1.00;;
78508;SDS011;67802;50.846;7.958;2023-03-24T11:27:58;3.10;;;0.80;;
78508;SDS011;67802;50.846;7.958;2023-03-24T11:30:29;2.97;;;0.90;;
78508;SDS011;67802;50.846;7.958;2023-03-24T11:32:58;3.63;;;0.93;;
78508;SDS011;67802;50.846;7.958;2023-03-24T11:35:24;1.83;;;0.80;;
78508;SDS011;67802;50.846;7.958;2023-03-24T11:37:50;2.63;;;0.90;;
78508;SDS011;67802;50.846;7.958;2023-03-24T11:42:58;1.48;;;0.75;;
78508;SDS011;67802;50.846;7.958;2023-03-24T11:47:59;1.90;;;0.75;;
78508;SDS011;67802;50.846;7.958;2023-03-24T11:50:29;2.05;;;0.68;;
78508;SDS011;67802;50.846;7.958;2023-03-24T11:53:06;2.33;;;0.82;;
78508;SDS011;67802;50.846;7.958;2023-03-24T12:09:56;2.17;;;0.88;;
78508;SDS011;67802;50.846;7.958;2023-03-24T12:17:39;2.25;;;0.90;;
78508;SDS011;67802;50.846;7.958;2023-03-24T12:25:36;1.63;;;0.80;;
78508;SDS011;67802;50.846;7.958;2023-03-24T12:39:33;2.92;;;0.80;;
78508;SDS011;67802;50.846;7.958;2023-03-24T12:53:06;1.10;;;0.70;;
78508;SDS011;67802;50.846;7.958;2023-03-24T12:56:03;3.63;;;0.85;;
78508;SDS011;67802;50.846;7.958;2023-03-24T13:01:25;2.65;;;0.73;;
78508;SDS011;67802;50.846;7.958;2023-03-24T13:06:39;1.80;;;0.65;;
78508;SDS011;67802;50.846;7.958;2023-03-24T13:09:18;3.40;;;0.90;;
78508;SDS011;67802;50.846;7.958;2023-03-24T13:11:56;2.63;;;0.70;;
78508;SDS011;67802;50.846;7.958;2023-03-24T13:14:31;2.47;;;1.00;;
78508;SDS011;67802;50.846;7.958;2023-03-24T13:17:15;3.05;;;1.00;;
78508;SDS011;67802;50.846;7.958;2023-03-24T13:19:45;2.80;;;0.70;;
78508;SDS011;67802;50.846;7.958;2023-03-24T13:22:14;3.17;;;0.77;;
78508;SDS011;67802;50.846;7.958;2023-03-24T13:24:42;1.77;;;0.73;;
78508;SDS011;67802;50.846;7.958;2023-03-24T13:27:30;4.53;;;1.10;;
78508;SDS011;67802;50.846;7.958;2023-03-24T13:32:55;2.75;;;0.63;;
78508;SDS011;67802;50.846;7.958;2023-03-24T13:38:39;2.80;;;0.80;;
78508;SDS011;67802;50.846;7.958;2023-03-24T13:41:10;3.53;;;1.00;;
78508;SDS011;67802;50.846;7.958;2023-03-24T13:43:37;5.15;;;0.98;;
78508;SDS011;67802;50.846;7.958;2023-03-24T13:46:12;4.30;;;1.00;;
78508;SDS011;67802;50.846;7.958;2023-03-24T13:53:51;3.25;;;1.25;;
78508;SDS011;67802;50.846;7.958;2023-03-24T13:56:27;3.33;;;1.10;;
78508;SDS011;67802;50.846;7.958;2023-03-24T14:06:43;4.15;;;0.98;;
78508;SDS011;67802;50.846;7.958;2023-03-24T14:09:14;3.75;;;0.90;;
78508;SDS011;67802;50.846;7.958;2023-03-24T14:11:47;3.85;;;0.95;;
78508;SDS011;67802;50.846;7.958;2023-03-24T14:14:34;5.00;;;0.85;;
78508;SDS011;67802;50.846;7.958;2023-03-24T14:17:20;2.70;;;0.80;;
78508;SDS011;67802;50.846;7.958;2023-03-24T14:22:27;3.50;;;0.82;;
78508;SDS011;67802;50.846;7.958;2023-03-24T14:25:04;3.05;;;0.73;;
78508;SDS011;67802;50.846;7.958;2023-03-24T14:27:44;2.80;;;0.68;;
78508;SDS011;67802;50.846;7.958;2023-03-24T14:32:54;2.35;;;0.70;;
78508;SDS011;67802;50.846;7.958;2023-03-24T14:35:34;3.38;;;0.77;;
78508;SDS011;67802;50.846;7.958;2023-03-24T14:40:40;3.03;;;0.90;;
78508;SDS011;67802;50.846;7.958;2023-03-24T14:46:03;2.05;;;0.60;;
78508;SDS011;67802;50.846;7.958;2023-03-24T14:48:56;1.83;;;0.70;;
78508;SDS011;67802;50.846;7.958;2023-03-24T14:54:01;2.20;;;0.80;;
78508;SDS011;67802;50.846;7.958;2023-03-24T14:56:32;2.28;;;0.43;;
78508;SDS011;67802;50.846;7.958;2023-03-24T14:59:02;3.30;;;0.75;;
78508;SDS011;67802;50.846;7.958;2023-03-24T15:01:35;2.15;;;0.70;;
78508;SDS011;67802;50.846;7.958;2023-03-24T15:04:05;1.90;;;0.70;;
78508;SDS011;67802;50.846;7.958;2023-03-24T15:06:32;3.10;;;0.80;;
78508;SDS011;67802;50.846;7.958;2023-03-24T15:09:09;3.03;;;0.65;;
78508;SDS011;67802;50.846;7.958;2023-03-24T15:11:36;2.28;;;0.82;;
78508;SDS011;67802;50.846;7.958;2023-03-24T15:14:10;1.20;;;0.50;;
78508;SDS011;67802;50.846;7.958;2023-03-24T15:19:09;3.15;;;0.93;;
78508;SDS011;67802;50.846;7.958;2023-03-24T15:21:45;1.65;;;0.57;;
78508;SDS011;67802;50.846;7.958;2023-03-24T15:26:46;1.55;;;0.75;;
78508;SDS011;67802;50.846;7.958;2023-03-24T15:29:12;1.73;;;0.60;;
78508;SDS011;67802;50.846;7.958;2023-03-24T15:31:37;1.83;;;0.70;;
78508;SDS011;67802;50.846;7.958;2023-03-24T15:36:51;1.92;;;0.70;;
78508;SDS011;67802;50.846;7.958;2023-03-24T15:39:24;2.58;;;0.68;;
78508;SDS011;67802;50.846;7.958;2023-03-24T15:41:51;1.27;;;0.68;;
78508;SDS011;67802;50.846;7.958;2023-03-24T15:44:22;2.38;;;0.70;;
78508;SDS011;67802;50.846;7.958;2023-03-24T15:46:50;2.97;;;0.73;;
78508;SDS011;67802;50.846;7.958;2023-03-24T15:49:23;1.05;;;0.50;;
78508;SDS011;67802;50.846;7.958;2023-03-24T15:54:23;1.85;;;0.50;;
78508;SDS011;67802;50.846;7.958;2023-03-24T15:56:59;1.65;;;0.85;;
78508;SDS011;67802;50.846;7.958;2023-03-24T15:59:36;4.45;;;0.90;;
78508;SDS011;67802;50.846;7.958;2023-03-24T16:02:06;2.88;;;0.65;;
78508;SDS011;67802;50.846;7.958;2023-03-24T16:04:39;1.83;;;0.60;;
78508;SDS011;67802;50.846;7.958;2023-03-24T16:07:05;4.60;;;0.60;;
78508;SDS011;67802;50.846;7.958;2023-03-24T16:09:34;1.43;;;0.63;;
78508;SDS011;67802;50.846;7.958;2023-03-24T16:12:02;3.15;;;0.70;;
78508;SDS011;67802;50.846;7.958;2023-03-24T16:14:29;2.10;;;0.60;;
78508;SDS011;67802;50.846;7.958;2023-03-24T16:16:59;0.95;;;0.55;;
78508;SDS011;67802;50.846;7.958;2023-03-24T16:19:29;3.03;;;0.60;;
78508;SDS011;67802;50.846;7.958;2023-03-24T16:21:54;1.65;;;0.40;;
78508;SDS011;67802;50.846;7.958;2023-03-24T16:24:20;0.93;;;0.50;;
78508;SDS011;67802;50.846;7.958;2023-03-24T16:26:45;1.00;;;0.40;;
78508;SDS011;67802;50.846;7.958;2023-03-24T16:29:15;2.38;;;0.65;;
78508;SDS011;67802;50.846;7.958;2023-03-24T16:31:43;1.98;;;0.60;;
78508;SDS011;67802;50.846;7.958;2023-03-24T16:34:13;2.15;;;0.63;;
78508;SDS011;67802;50.846;7.958;2023-03-24T16:36:39;1.70;;;0.60;;
78508;SDS011;67802;50.846;7.958;2023-03-24T16:39:05;1.83;;;0.73;;
78508;SDS011;67802;50.846;7.958;2023-03-24T16:41:37;1.70;;;0.57;;
78508;SDS011;67802;50.846;7.958;2023-03-24T16:44:02;2.88;;;0.73;;
78508;SDS011;67802;50.846;7.958;2023-03-24T16:46:31;1.83;;;0.50;;
78508;SDS011;67802;50.846;7.958;2023-03-24T16:48:58;0.90;;;0.40;;
78508;SDS011;67802;50.846;7.958;2023-03-24T16:51:25;3.67;;;0.60;;
78508;SDS011;67802;50.846;7.958;2023-03-24T16:53:51;1.85;;;0.40;;
78508;SDS011;67802;50.846;7.958;2023-03-24T16:56:18;1.65;;;0.70;;
78508;SDS011;67802;50.846;7.958;2023-03-24T16:58:45;2.17;;;0.68;;
78508;SDS011;67802;50.846;7.958;2023-03-24T17:01:15;1.27;;;0.47;;
78508;SDS011;67802;50.846;7.958;2023-03-24T17:04:01;1.83;;;0.80;;
78508;SDS011;67802;50.846;7.958;2023-03-24T17:06:30;1.70;;;0.65;;
78508;SDS011;67802;50.846;7.958;2023-03-24T17:08:57;2.50;;;0.63;;
78508;SDS011;67802;50.846;7.958;2023-03-24T17:11:33;2.00;;;0.60;;
78508;SDS011;67802;50.846;7.958;2023-03-24T17:14:00;1.85;;;0.50;;
78508;SDS011;67802;50.846;7.958;2023-03-24T17:16:29;1.65;;;0.60;;
78508;SDS011;67802;50.846;7.958;2023-03-24T17:18:55;0.90;;;0.40;;
78508;SDS011;67802;50.846;7.958;2023-03-24T17:21:20;1.95;;;0.63;;
78508;SDS011;67802;50.846;7.958;2023-03-24T17:23:46;1.85;;;0.57;;
78508;SDS011;67802;50.846;7.958;2023-03-24T17:26:13;1.48;;;0.52;;
78508;SDS011;67802;50.846;7.958;2023-03-24T17:28:41;1.17;;;0.47;;
78508;SDS011;67802;50.846;7.958;2023-03-24T17:31:07;1.33;;;0.50;;
78508;SDS011;67802;50.846;7.958;2023-03-24T17:33:33;1.30;;;0.60;;
78508;SDS011;67802;50.846;7.958;2023-03-24T17:35:58;1.67;;;0.60;;
78508;SDS011;67802;50.846;7.958;2023-03-24T17:38:23;1.38;;;0.63;;
78508;SDS011;67802;50.846;7.958;2023-03-24T17:40:57;1.20;;;0.55;;
78508;SDS011;67802;50.846;7.958;2023-03-24T17:43:24;1.88;;;0.60;;
78508;SDS011;67802;50.846;7.958;2023-03-24T17:45:49;1.10;;;0.57;;
78508;SDS011;67802;50.846;7.958;2023-03-24T17:48:14;3.03;;;0.70;;
78508;SDS011;67802;50.846;7.958;2023-03-24T17:50:40;0.88;;;0.50;;
78508;SDS011;67802;50.846;7.958;2023-03-24T17:53:05;1.90;;;0.63;;
78508;SDS011;67802;50.846;7.958;2023-03-24T17:55:31;6.15;;;0.90;;
78508;SDS011;67802;50.846;7.958;2023-03-24T17:57:56;2.90;;;1.03;;
78508;SDS011;67802;50.846;7.958;2023-03-24T18:00:21;1.40;;;0.53;;
78508;SDS011;67802;50.846;7.958;2023-03-24T18:02:47;4.20;;;0.80;;
78508;SDS011;67802;50.846;7.958;2023-03-24T18:05:12;3.63;;;1.13;;
78508;SDS011;67802;50.846;7.958;2023-03-24T18:07:38;3.40;;;0.80;;
78508;SDS011;67802;50.846;7.958;2023-03-24T18:10:04;6.75;;;0.80;;